createdAt,value
2022-10-19T00:00:17.442Z,90.62
2022-10-19T00:01:17.461Z,90.72
2022-10-19T00:02:17.510Z,90.77
2022-10-19T00:03:20.751Z,90.86
2022-10-19T00:04:17.431Z,90.92
2022-10-19T00:05:17.372Z,91.01
2022-10-19T00:06:17.385Z,91.03
2022-10-19T00:07:17.404Z,91.02
2022-10-19T00:08:17.335Z,90.97
2022-10-19T00:09:17.330Z,90.93
2022-10-19T00:10:17.311Z,90.83
2022-10-19T00:11:17.439Z,90.86
2022-10-19T00:12:17.341Z,90.81
2022-10-19T00:13:17.294Z,90.76
2022-10-19T00:14:17.286Z,90.69
2022-10-19T00:15:17.281Z,90.80
2022-10-19T00:16:17.304Z,90.87
2022-10-19T00:17:17.249Z,90.89
2022-10-19T00:18:17.281Z,90.90
2022-10-19T00:19:17.235Z,90.92
2022-10-19T00:20:17.238Z,90.95
2022-10-19T00:21:17.232Z,90.98
2022-10-19T00:22:17.191Z,90.95
2022-10-19T00:23:17.232Z,90.86
2022-10-19T00:24:17.171Z,90.88
2022-10-19T00:25:17.185Z,90.93
2022-10-19T00:26:17.180Z,91.00
2022-10-19T00:27:17.189Z,91.03
2022-10-19T00:28:17.126Z,91.05
2022-10-19T00:29:17.182Z,91.10
2022-10-19T00:30:17.157Z,91.10
2022-10-19T00:31:17.128Z,91.09
2022-10-19T00:32:17.104Z,91.12
2022-10-19T00:33:17.088Z,91.11
2022-10-19T00:34:17.141Z,91.03
2022-10-19T00:35:17.133Z,90.92
2022-10-19T00:36:17.095Z,90.76
2022-10-19T00:37:17.090Z,90.59
2022-10-19T00:38:17.035Z,90.48
2022-10-19T00:39:17.063Z,90.55
2022-10-19T00:40:17.040Z,90.61
2022-10-19T00:41:17.006Z,90.68
2022-10-19T00:42:17.037Z,90.75
2022-10-19T00:43:16.988Z,90.84
2022-10-19T00:44:16.981Z,90.90
2022-10-19T00:45:16.956Z,90.95
2022-10-19T00:46:16.988Z,91.02
2022-10-19T00:47:16.991Z,91.07
2022-10-19T00:48:16.939Z,91.13
2022-10-19T00:49:16.962Z,91.17
2022-10-19T00:50:16.914Z,91.18
2022-10-19T00:51:16.957Z,91.12
2022-10-19T00:52:16.891Z,91.04
2022-10-19T00:53:16.907Z,91.07
2022-10-19T00:54:16.907Z,91.12
2022-10-19T00:55:16.861Z,91.12
2022-10-19T00:56:16.854Z,90.96
2022-10-19T00:57:16.839Z,90.77
2022-10-19T00:58:16.831Z,90.62
2022-10-19T00:59:16.831Z,90.58
2022-10-19T01:01:54.295Z,89.85
2022-10-19T01:02:55.214Z,90.39
2022-10-19T01:03:55.264Z,90.59
2022-10-19T01:04:55.197Z,90.70
2022-10-19T01:05:55.182Z,90.85
2022-10-19T01:06:55.253Z,90.88
2022-10-19T01:07:55.297Z,90.93
2022-10-19T01:08:55.161Z,90.99
2022-10-19T01:09:55.146Z,91.04
2022-10-19T01:10:55.203Z,91.12
2022-10-19T01:11:55.124Z,91.23
2022-10-19T01:12:55.165Z,91.27
2022-10-19T01:13:55.121Z,91.35
2022-10-19T01:14:55.203Z,91.40
2022-10-19T01:15:55.088Z,91.41
2022-10-19T01:16:55.074Z,91.44
2022-10-19T01:17:55.063Z,91.49
2022-10-19T01:18:55.108Z,91.53
2022-10-19T01:19:55.084Z,91.56
2022-10-19T01:20:55.087Z,91.65
2022-10-19T01:21:55.024Z,91.75
2022-10-19T01:22:55.087Z,91.82
2022-10-19T01:23:55.059Z,91.85
2022-10-19T01:25:54.985Z,91.71
2022-10-19T01:26:54.993Z,91.66
2022-10-19T01:27:55.051Z,91.64
2022-10-19T01:28:55.067Z,91.62
2022-10-19T01:29:54.939Z,91.62
2022-10-19T01:30:54.934Z,91.61
2022-10-19T01:31:54.949Z,91.61
2022-10-19T01:32:54.924Z,91.62
2022-10-19T01:33:54.991Z,91.66
2022-10-19T01:34:54.943Z,91.75
2022-10-19T01:35:54.974Z,91.85
2022-10-19T01:36:54.872Z,91.91
2022-10-19T01:37:54.858Z,91.94
2022-10-19T01:38:54.905Z,92.00
2022-10-19T01:39:54.841Z,91.99
2022-10-19T01:40:54.880Z,92.00
2022-10-19T01:41:54.823Z,92.00
2022-10-19T01:43:54.793Z,91.98
2022-10-19T01:44:54.799Z,91.93
2022-10-19T01:45:54.780Z,91.88
2022-10-19T01:46:54.815Z,91.85
2022-10-19T01:47:54.762Z,91.81
2022-10-19T01:48:54.753Z,91.77
2022-10-19T01:49:54.777Z,91.73
2022-10-19T01:50:54.793Z,91.70
2022-10-19T01:51:54.754Z,91.66
2022-10-19T01:52:54.756Z,91.65
2022-10-19T01:53:54.693Z,91.67
2022-10-19T01:54:54.696Z,91.67
2022-10-19T01:55:54.672Z,91.69
2022-10-19T01:56:54.675Z,91.76
2022-10-19T01:57:54.712Z,91.83
2022-10-19T01:58:54.663Z,91.94
2022-10-19T01:59:54.651Z,92.00
2022-10-19T02:00:54.740Z,92.05
2022-10-19T02:01:54.652Z,92.09
2022-10-19T02:02:54.613Z,92.11
2022-10-19T02:03:54.653Z,92.14
2022-10-19T02:04:54.600Z,92.21
2022-10-19T02:05:54.671Z,92.30
2022-10-19T02:06:54.571Z,92.36
2022-10-19T02:07:54.558Z,92.42
2022-10-19T02:08:54.556Z,92.50
2022-10-19T02:09:54.565Z,92.55
2022-10-19T02:10:54.576Z,92.60
2022-10-19T02:11:56.929Z,92.64
2022-10-19T02:12:54.515Z,92.66
2022-10-19T02:13:54.536Z,92.71
2022-10-19T02:14:54.488Z,92.73
2022-10-19T02:15:54.493Z,92.75
2022-10-19T02:16:54.462Z,92.79
2022-10-19T02:17:54.505Z,92.81
2022-10-19T02:18:54.449Z,92.84
2022-10-19T02:19:54.474Z,92.87
2022-10-19T02:20:54.464Z,92.89
2022-10-19T02:21:54.454Z,92.92
2022-10-19T02:22:54.398Z,92.95
2022-10-19T02:23:54.457Z,92.96
2022-10-19T02:24:54.394Z,92.98
2022-10-19T02:25:54.365Z,93.01
2022-10-19T02:26:54.363Z,93.03
2022-10-19T02:27:54.410Z,93.05
2022-10-19T02:28:54.345Z,93.05
2022-10-19T02:29:54.327Z,93.07
2022-10-19T02:30:54.350Z,93.07
2022-10-19T02:31:54.305Z,93.09
2022-10-19T02:32:54.351Z,93.11
2022-10-19T02:33:54.292Z,93.11
2022-10-19T02:34:54.283Z,93.14
2022-10-19T02:35:54.273Z,93.12
2022-10-19T02:36:54.264Z,93.16
2022-10-19T02:37:54.246Z,93.16
2022-10-19T02:38:54.280Z,93.15
2022-10-19T02:39:54.251Z,93.18
2022-10-19T02:40:54.220Z,93.18
2022-10-19T02:41:54.206Z,93.17
2022-10-19T02:42:54.227Z,93.20
2022-10-19T02:43:54.244Z,93.20
2022-10-19T02:44:54.183Z,93.20
2022-10-19T02:45:54.168Z,93.20
2022-10-19T02:46:54.202Z,93.21
2022-10-19T02:47:54.152Z,93.19
2022-10-19T02:48:54.180Z,93.22
2022-10-19T02:49:54.168Z,93.22
2022-10-19T02:50:54.130Z,93.22
2022-10-19T02:51:54.187Z,93.22
2022-10-19T02:52:54.100Z,93.23
2022-10-19T02:53:54.096Z,93.23
2022-10-19T02:54:54.088Z,93.23
2022-10-19T02:55:54.091Z,93.24
2022-10-19T02:56:54.103Z,93.26
2022-10-19T02:57:54.047Z,93.27
2022-10-19T02:58:54.062Z,93.29
2022-10-19T02:59:54.027Z,93.28
2022-10-19T03:00:54.058Z,93.28
2022-10-19T03:01:54.215Z,93.30
2022-10-19T03:02:54.000Z,93.30
2022-10-19T03:03:53.992Z,93.33
2022-10-19T03:04:53.980Z,93.31
2022-10-19T03:05:54.019Z,93.34
2022-10-19T03:06:53.958Z,93.33
2022-10-19T03:07:53.947Z,93.35
2022-10-19T03:08:53.995Z,93.36
2022-10-19T03:09:53.924Z,93.36
2022-10-19T03:10:53.972Z,93.36
2022-10-19T03:11:53.923Z,93.37
2022-10-19T03:12:53.902Z,93.37
2022-10-19T03:13:53.883Z,93.38
2022-10-19T03:14:53.882Z,93.38
2022-10-19T03:15:53.880Z,93.36
2022-10-19T03:16:53.901Z,93.39
2022-10-19T03:17:53.839Z,93.39
2022-10-19T03:18:53.874Z,93.39
2022-10-19T03:19:53.819Z,93.39
2022-10-19T03:20:53.855Z,93.39
2022-10-19T03:21:53.810Z,93.40
2022-10-19T03:23:53.780Z,93.40
2022-10-19T03:24:53.775Z,93.39
2022-10-19T03:25:53.813Z,93.39
2022-10-19T03:26:53.756Z,93.39
2022-10-19T03:27:53.755Z,93.40
2022-10-19T03:28:53.812Z,93.41
2022-10-19T03:29:53.713Z,93.39
2022-10-19T03:30:53.707Z,93.40
2022-10-19T03:31:53.695Z,93.40
2022-10-19T03:32:53.731Z,93.38
2022-10-19T03:33:53.788Z,93.38
2022-10-19T03:34:53.756Z,93.38
2022-10-19T03:35:53.675Z,93.38
2022-10-19T03:36:53.644Z,93.38
2022-10-19T03:37:53.672Z,93.39
2022-10-19T03:38:53.690Z,93.37
2022-10-19T03:39:53.625Z,93.37
2022-10-19T03:40:53.635Z,93.37
2022-10-19T03:41:53.595Z,93.38
2022-10-19T03:42:53.643Z,93.36
2022-10-19T03:43:53.608Z,93.36
2022-10-19T03:44:53.582Z,93.34
2022-10-19T03:45:53.563Z,93.34
2022-10-19T03:46:53.597Z,93.35
2022-10-19T03:47:53.531Z,93.34
2022-10-19T03:48:53.522Z,93.33
2022-10-19T03:49:53.513Z,93.33
2022-10-19T03:50:53.505Z,93.32
2022-10-19T03:51:53.536Z,93.31
2022-10-19T03:52:53.524Z,93.30
2022-10-19T03:53:53.472Z,93.28
2022-10-19T03:54:53.508Z,93.28
2022-10-19T03:55:53.496Z,93.27
2022-10-19T03:56:53.459Z,93.26
2022-10-19T03:57:53.427Z,93.23
2022-10-19T03:58:53.472Z,93.23
2022-10-19T03:59:53.420Z,93.20
2022-10-19T04:00:53.459Z,93.19
2022-10-19T04:01:53.390Z,93.16
2022-10-19T04:02:53.494Z,93.15
2022-10-19T04:03:53.366Z,93.14
2022-10-19T04:04:53.359Z,93.10
2022-10-19T04:05:53.356Z,93.09
2022-10-19T04:06:53.349Z,93.07
2022-10-19T04:07:53.378Z,93.06
2022-10-19T04:08:53.340Z,93.03
2022-10-19T04:09:53.305Z,93.03
2022-10-19T04:10:53.304Z,93.02
2022-10-19T04:11:53.358Z,93.01
2022-10-19T04:12:53.983Z,93.01
2022-10-19T04:13:53.319Z,92.99
2022-10-19T04:14:57.188Z,92.98
2022-10-19T04:15:53.259Z,92.97
2022-10-19T04:16:53.240Z,92.95
2022-10-19T04:17:53.230Z,92.96
2022-10-19T04:18:53.242Z,92.94
2022-10-19T04:19:53.257Z,92.94
2022-10-19T04:20:53.222Z,92.93
2022-10-19T04:21:53.217Z,92.92
2022-10-19T04:22:53.231Z,92.92
2022-10-19T04:23:53.164Z,92.90
2022-10-19T04:24:53.158Z,92.90
2022-10-19T04:25:53.212Z,92.87
2022-10-19T04:26:53.151Z,92.86
2022-10-19T04:27:53.126Z,92.87
2022-10-19T04:28:53.150Z,92.86
2022-10-19T04:29:53.154Z,92.84
2022-10-19T04:30:53.158Z,92.83
2022-10-19T04:31:53.135Z,92.82
2022-10-19T04:32:53.094Z,92.82
2022-10-19T04:33:53.069Z,92.81
2022-10-19T04:34:53.053Z,92.79
2022-10-19T04:35:53.085Z,92.77
2022-10-19T04:36:53.032Z,92.74
2022-10-19T04:37:53.072Z,92.72
2022-10-19T04:38:53.070Z,92.70
2022-10-19T04:39:53.015Z,92.66
2022-10-19T04:40:52.992Z,92.65
2022-10-19T04:41:52.990Z,92.62
2022-10-19T04:42:53.011Z,92.61
2022-10-19T04:43:53.008Z,92.59
2022-10-19T04:44:52.963Z,92.58
2022-10-19T04:45:52.946Z,92.56
2022-10-19T04:46:52.927Z,92.53
2022-10-19T04:47:52.971Z,92.51
2022-10-19T04:48:52.909Z,92.49
2022-10-19T04:49:52.963Z,92.48
2022-10-19T04:50:52.887Z,92.45
2022-10-19T04:51:52.880Z,92.44
2022-10-19T04:52:52.920Z,92.41
2022-10-19T04:53:54.452Z,92.35
2022-10-19T04:54:52.854Z,92.36
2022-10-19T04:55:52.843Z,92.35
2022-10-19T04:56:52.830Z,92.33
2022-10-19T04:57:52.866Z,92.29
2022-10-19T04:58:52.839Z,92.26
2022-10-19T04:59:52.804Z,92.24
2022-10-19T05:00:53.031Z,92.21
2022-10-19T05:01:52.787Z,92.23
2022-10-19T05:02:52.861Z,92.23
2022-10-19T05:03:52.856Z,92.21
2022-10-19T05:04:52.757Z,92.22
2022-10-19T05:05:52.787Z,92.22
2022-10-19T05:06:52.774Z,92.22
2022-10-19T05:07:52.722Z,92.22
2022-10-19T05:08:52.769Z,92.19
2022-10-19T05:09:52.743Z,92.19
2022-10-19T05:10:52.679Z,92.18
2022-10-19T05:11:52.736Z,92.20
2022-10-19T05:12:52.751Z,92.19
2022-10-19T05:13:52.663Z,92.19
2022-10-19T05:14:52.674Z,92.20
2022-10-19T05:15:52.591Z,92.18
2022-10-19T05:16:52.629Z,92.19
2022-10-19T05:17:52.644Z,92.17
2022-10-19T05:18:52.647Z,92.18
2022-10-19T05:19:52.602Z,92.18
2022-10-19T05:20:52.588Z,92.20
2022-10-19T05:21:52.593Z,92.21
2022-10-19T05:22:52.521Z,92.22
2022-10-19T05:23:52.527Z,92.24
2022-10-19T05:24:55.879Z,92.24
2022-10-19T05:25:52.490Z,92.24
2022-10-19T05:26:52.552Z,92.23
2022-10-19T05:27:52.466Z,92.22
2022-10-19T05:28:52.488Z,92.20
2022-10-19T05:29:52.481Z,92.21
2022-10-19T05:30:52.472Z,92.19
2022-10-19T05:31:52.435Z,92.16
2022-10-19T05:32:52.417Z,92.17
2022-10-19T05:33:52.447Z,92.19
2022-10-19T05:34:52.403Z,92.19
2022-10-19T05:35:52.434Z,92.19
2022-10-19T05:36:52.376Z,92.19
2022-10-19T05:37:52.406Z,92.15
2022-10-19T05:38:52.401Z,92.15
2022-10-19T05:39:52.364Z,92.14
2022-10-19T05:40:53.747Z,92.11
2022-10-19T05:41:52.378Z,92.11
2022-10-19T05:42:52.304Z,92.12
2022-10-19T05:43:52.298Z,92.09
2022-10-19T05:44:52.296Z,92.07
2022-10-19T05:45:52.275Z,92.06
2022-10-19T05:46:52.264Z,92.03
2022-10-19T05:47:52.393Z,92.03
2022-10-19T05:48:52.256Z,92.00
2022-10-19T05:49:52.275Z,91.99
2022-10-19T05:50:52.231Z,91.96
2022-10-19T05:51:52.245Z,91.97
2022-10-19T05:52:52.214Z,91.96
2022-10-19T05:53:52.255Z,91.94
2022-10-19T05:54:52.250Z,91.95
2022-10-19T05:55:52.173Z,91.94
2022-10-19T05:56:52.182Z,91.92
2022-10-19T05:57:52.204Z,91.88
2022-10-19T05:58:52.139Z,91.87
2022-10-19T05:59:52.138Z,91.84
2022-10-19T06:00:52.117Z,91.84
2022-10-19T06:01:52.163Z,91.84
2022-10-19T06:02:54.683Z,91.83
2022-10-19T06:03:52.151Z,91.81
2022-10-19T06:04:52.198Z,91.82
2022-10-19T06:05:52.139Z,91.80
2022-10-19T06:06:52.074Z,91.79
2022-10-19T06:07:52.137Z,91.78
2022-10-19T06:08:52.050Z,91.75
2022-10-19T06:09:52.075Z,91.75
2022-10-19T06:10:52.067Z,91.72
2022-10-19T06:11:52.017Z,91.73
2022-10-19T06:12:52.001Z,91.70
2022-10-19T06:13:52.000Z,91.71
2022-10-19T06:14:52.043Z,91.68
2022-10-19T06:15:51.971Z,91.65
2022-10-19T06:16:52.167Z,91.64
2022-10-19T06:17:51.976Z,91.64
2022-10-19T06:18:51.961Z,91.64
2022-10-19T06:19:52.005Z,91.64
2022-10-19T06:20:51.944Z,91.64
2022-10-19T06:21:51.912Z,91.67
2022-10-19T06:22:51.896Z,91.64
2022-10-19T06:23:51.895Z,91.63
2022-10-19T06:24:51.925Z,91.62
2022-10-19T06:25:51.872Z,91.62
2022-10-19T06:26:51.883Z,91.62
2022-10-19T06:27:51.953Z,91.55
2022-10-19T06:28:51.844Z,91.47
2022-10-19T06:29:51.834Z,91.38
2022-10-19T06:30:51.862Z,91.37
2022-10-19T06:31:51.809Z,91.36
2022-10-19T06:32:51.895Z,91.36
2022-10-19T06:33:51.863Z,91.30
2022-10-19T06:34:55.746Z,91.25
2022-10-19T06:35:51.834Z,91.23
2022-10-19T06:36:51.801Z,91.19
2022-10-19T06:37:51.830Z,91.18
2022-10-19T06:38:51.746Z,91.18
2022-10-19T06:39:51.774Z,91.09
2022-10-19T06:40:51.711Z,91.05
2022-10-19T06:41:51.705Z,90.97
2022-10-19T06:42:51.711Z,90.89
2022-10-19T06:43:51.721Z,90.88
2022-10-19T06:44:51.670Z,90.87
2022-10-19T06:45:51.704Z,90.79
2022-10-19T06:46:51.673Z,90.73
2022-10-19T06:47:51.655Z,90.70
2022-10-19T06:48:51.641Z,90.71
2022-10-19T06:49:51.640Z,90.74
2022-10-19T06:50:51.632Z,90.70
2022-10-19T06:51:51.602Z,90.57
2022-10-19T06:52:51.589Z,90.51
2022-10-19T06:53:52.921Z,90.53
2022-10-19T06:54:51.597Z,90.64
2022-10-19T06:55:51.576Z,90.61
2022-10-19T06:56:51.637Z,90.51
2022-10-19T06:57:51.542Z,90.42
2022-10-19T06:58:51.548Z,90.33
2022-10-19T06:59:53.021Z,90.22
2022-10-19T07:00:51.558Z,90.28
2022-10-19T07:01:51.523Z,90.24
2022-10-19T07:02:51.524Z,90.25
2022-10-19T07:03:51.482Z,90.24
2022-10-19T07:04:51.497Z,90.33
2022-10-19T07:05:51.469Z,90.46
2022-10-19T07:06:51.455Z,90.43
2022-10-19T07:07:51.512Z,90.44
2022-10-19T07:08:51.453Z,90.50
2022-10-19T07:09:51.418Z,90.46
2022-10-19T07:10:51.435Z,90.49
2022-10-19T07:11:51.410Z,90.53
2022-10-19T07:12:51.384Z,90.48
2022-10-19T07:13:51.567Z,90.50
2022-10-19T07:14:51.389Z,90.51
2022-10-19T07:15:51.390Z,90.49
2022-10-19T07:16:51.365Z,90.42
2022-10-19T07:17:51.338Z,90.40
2022-10-19T07:18:51.348Z,90.43
2022-10-19T07:19:51.335Z,90.43
2022-10-19T07:20:51.301Z,90.34
2022-10-19T07:21:51.363Z,90.33
2022-10-19T07:22:51.284Z,90.30
2022-10-19T07:23:51.290Z,90.26
2022-10-19T07:24:51.300Z,90.28
2022-10-19T07:25:51.267Z,90.31
2022-10-19T07:26:51.244Z,90.36
2022-10-19T07:27:51.398Z,90.28
2022-10-19T07:28:51.240Z,90.21
2022-10-19T07:29:51.254Z,90.12
2022-10-19T07:30:51.208Z,90.14
2022-10-19T07:31:51.194Z,90.19
2022-10-19T07:32:51.178Z,90.25
2022-10-19T07:33:51.184Z,90.30
2022-10-19T07:34:51.171Z,90.27
2022-10-19T07:35:51.213Z,90.34
2022-10-19T07:36:51.140Z,90.32
2022-10-19T07:37:51.208Z,90.28
2022-10-19T07:38:51.139Z,90.27
2022-10-19T07:39:51.328Z,90.28
2022-10-19T07:40:51.098Z,90.32
2022-10-19T07:41:51.086Z,90.33
2022-10-19T07:42:51.157Z,90.37
2022-10-19T07:43:51.091Z,90.33
2022-10-19T07:44:51.060Z,90.27
2022-10-19T07:45:51.086Z,90.20
2022-10-19T07:46:51.094Z,90.15
2022-10-19T07:47:51.117Z,90.08
2022-10-19T07:48:51.029Z,90.03
2022-10-19T07:49:51.075Z,89.94
2022-10-19T07:50:50.998Z,89.94
2022-10-19T07:51:51.040Z,89.86
2022-10-19T07:52:50.978Z,89.85
2022-10-19T07:53:50.963Z,89.94
2022-10-19T07:54:50.952Z,89.97
2022-10-19T07:55:50.949Z,89.93
2022-10-19T07:56:50.928Z,89.99
2022-10-19T07:57:50.979Z,89.96
2022-10-19T07:58:50.918Z,89.99
2022-10-19T07:59:50.967Z,89.96
2022-10-19T08:00:50.897Z,89.89
2022-10-19T08:01:50.954Z,89.76
2022-10-19T08:03:00.038Z,89.61
2022-10-19T08:05:09.101Z,89.43
2022-10-19T08:05:50.860Z,89.37
2022-10-19T08:06:50.834Z,89.31
2022-10-19T08:07:50.833Z,89.30
2022-10-19T08:08:50.958Z,89.29
2022-10-19T08:09:53.853Z,89.09
2022-10-19T08:10:50.797Z,89.00
2022-10-19T08:11:50.830Z,89.05
2022-10-19T08:12:50.770Z,89.04
2022-10-19T08:13:50.758Z,88.83
2022-10-19T08:14:50.741Z,88.53
2022-10-19T08:15:50.742Z,88.41
2022-10-19T08:16:50.779Z,88.43
2022-10-19T08:17:50.768Z,88.39
2022-10-19T08:18:50.791Z,88.42
2022-10-19T08:19:50.747Z,88.33
2022-10-19T08:20:50.683Z,88.58
2022-10-19T08:21:50.729Z,88.68
2022-10-19T08:22:53.915Z,88.85
2022-10-19T08:23:50.687Z,89.02
2022-10-19T08:24:50.644Z,89.09
2022-10-19T08:25:50.637Z,89.15
2022-10-19T08:26:50.630Z,89.17
2022-10-19T08:27:50.678Z,89.17
2022-10-19T08:28:50.612Z,89.19
2022-10-19T08:29:50.689Z,89.17
2022-10-19T08:30:50.586Z,89.20
2022-10-19T08:31:50.607Z,89.07
2022-10-19T08:32:50.611Z,88.95
2022-10-19T08:33:50.578Z,88.96
2022-10-19T08:34:50.556Z,88.88
2022-10-19T08:35:50.533Z,88.71
2022-10-19T08:36:50.532Z,88.15
2022-10-19T08:37:50.938Z,88.02
2022-10-19T08:38:50.502Z,87.93
2022-10-19T08:39:50.545Z,87.76
2022-10-19T08:40:50.484Z,87.79
2022-10-19T08:41:50.475Z,87.58
2022-10-19T08:42:50.463Z,87.52
2022-10-19T08:43:50.478Z,87.42
2022-10-19T08:44:50.495Z,87.36
2022-10-19T08:45:50.450Z,87.32
2022-10-19T08:46:50.424Z,87.45
2022-10-19T08:47:50.412Z,87.57
2022-10-19T08:48:50.396Z,87.85
2022-10-19T08:49:50.390Z,88.06
2022-10-19T08:50:50.449Z,88.05
2022-10-19T08:51:50.374Z,87.87
2022-10-19T08:52:50.358Z,87.59
2022-10-19T08:53:50.356Z,87.25
2022-10-19T08:54:50.347Z,86.84
2022-10-19T08:55:50.330Z,86.76
2022-10-19T08:56:51.808Z,86.51
2022-10-19T08:57:50.376Z,86.85
2022-10-19T08:58:50.382Z,86.94
2022-10-19T08:59:50.285Z,87.20
2022-10-19T09:00:50.289Z,87.46
2022-10-19T09:01:50.317Z,87.52
2022-10-19T09:02:50.266Z,87.56
2022-10-19T09:03:55.553Z,87.60
2022-10-19T09:04:50.248Z,87.41
2022-10-19T09:05:50.229Z,87.26
2022-10-19T09:06:50.239Z,87.28
2022-10-19T09:07:50.263Z,86.97
2022-10-19T09:08:50.286Z,86.96
2022-10-19T09:09:50.197Z,87.05
2022-10-19T09:10:50.325Z,86.79
2022-10-19T09:11:50.169Z,87.02
2022-10-19T09:12:52.816Z,87.36
2022-10-19T09:14:06.088Z,87.63
2022-10-19T09:14:50.146Z,87.62
2022-10-19T09:15:50.223Z,87.37
2022-10-19T09:16:50.118Z,87.50
2022-10-19T09:17:50.124Z,87.59
2022-10-19T09:18:50.223Z,87.41
2022-10-19T09:19:50.139Z,87.38
2022-10-19T09:20:50.106Z,87.49
2022-10-19T09:21:50.066Z,87.40
2022-10-19T09:22:50.086Z,87.34
2022-10-19T09:23:50.061Z,87.20
2022-10-19T09:24:50.042Z,87.02
2022-10-19T09:25:50.069Z,87.17
2022-10-19T09:26:50.059Z,87.14
2022-10-19T09:27:50.074Z,87.01
2022-10-19T09:28:50.001Z,86.99
2022-10-19T09:29:49.982Z,87.24
2022-10-19T09:30:50.035Z,87.11
2022-10-19T09:31:50.050Z,87.28
2022-10-19T09:32:49.960Z,87.29
2022-10-19T09:33:49.963Z,87.19
2022-10-19T09:34:49.934Z,87.05
2022-10-19T09:35:49.987Z,87.05
2022-10-19T09:36:51.026Z,86.68
2022-10-19T09:37:49.912Z,86.54
2022-10-19T09:38:49.905Z,86.43
2022-10-19T09:39:54.032Z,86.54
2022-10-19T09:40:49.921Z,86.50
2022-10-19T09:41:49.861Z,86.26
2022-10-19T09:42:49.905Z,86.36
2022-10-19T09:43:49.835Z,86.31
2022-10-19T09:44:49.876Z,86.15
2022-10-19T09:45:49.826Z,86.09
2022-10-19T09:46:49.820Z,86.34
2022-10-19T09:47:49.938Z,86.25
2022-10-19T09:48:49.798Z,86.18
2022-10-19T09:49:49.780Z,86.20
2022-10-19T09:50:49.813Z,86.10
2022-10-19T09:51:49.767Z,86.13
2022-10-19T09:52:49.800Z,86.19
2022-10-19T09:53:49.738Z,86.23
2022-10-19T09:54:49.739Z,86.41
2022-10-19T09:56:49.738Z,86.38
2022-10-19T09:57:49.758Z,86.29
2022-10-19T09:58:49.693Z,86.25
2022-10-19T09:59:49.708Z,86.04
2022-10-19T10:00:49.678Z,86.27
2022-10-19T10:01:49.834Z,86.31
2022-10-19T10:02:49.724Z,86.26
2022-10-19T10:03:52.514Z,86.05
2022-10-19T10:04:49.646Z,85.91
2022-10-19T10:05:49.611Z,85.96
2022-10-19T10:06:49.690Z,86.05
2022-10-19T10:07:49.634Z,85.51
2022-10-19T10:08:49.682Z,85.53
2022-10-19T10:09:49.614Z,85.79
2022-10-19T10:10:49.575Z,85.75
2022-10-19T10:11:49.708Z,85.87
2022-10-19T10:12:49.560Z,85.90
2022-10-19T10:13:49.537Z,85.98
2022-10-19T10:14:49.573Z,86.03
2022-10-19T10:15:49.532Z,85.88
2022-10-19T10:16:49.519Z,85.94
2022-10-19T10:17:49.490Z,85.93
2022-10-19T10:18:49.491Z,85.91
2022-10-19T10:19:49.546Z,85.90
2022-10-19T10:20:49.541Z,86.12
2022-10-19T10:21:49.464Z,85.86
2022-10-19T10:22:49.492Z,85.51
2022-10-19T10:23:49.446Z,85.48
2022-10-19T10:24:49.480Z,85.06
2022-10-19T10:25:49.409Z,85.00
2022-10-19T10:26:49.428Z,84.86
2022-10-19T10:27:49.452Z,85.25
2022-10-19T10:28:49.386Z,85.39
2022-10-19T10:29:49.405Z,85.56
2022-10-19T10:30:49.367Z,85.77
2022-10-19T10:31:49.346Z,85.74
2022-10-19T10:32:49.403Z,85.51
2022-10-19T10:33:49.409Z,85.04
2022-10-19T10:34:53.812Z,84.68
2022-10-19T10:35:49.308Z,84.36
2022-10-19T10:36:49.304Z,84.10
2022-10-19T10:37:49.286Z,83.96
2022-10-19T10:38:49.373Z,83.32
2022-10-19T10:39:49.318Z,83.52
2022-10-19T10:40:49.260Z,83.44
2022-10-19T10:41:49.247Z,83.30
2022-10-19T10:42:49.235Z,83.39
2022-10-19T10:43:49.286Z,83.56
2022-10-19T10:44:49.295Z,83.82
2022-10-19T10:45:49.213Z,83.82
2022-10-19T10:46:49.198Z,83.70
2022-10-19T10:47:49.252Z,83.33
2022-10-19T10:48:50.368Z,82.98
2022-10-19T10:49:49.206Z,82.84
2022-10-19T10:50:49.162Z,82.59
2022-10-19T10:51:50.710Z,82.40
2022-10-19T10:52:49.147Z,82.29
2022-10-19T10:53:49.128Z,82.04
2022-10-19T10:54:49.275Z,81.95
2022-10-19T10:55:49.136Z,81.78
2022-10-19T10:56:49.101Z,81.84
2022-10-19T10:57:49.083Z,81.40
2022-10-19T10:58:49.138Z,80.99
2022-10-19T10:59:49.058Z,80.28
2022-10-19T11:00:49.080Z,80.19
2022-10-19T11:01:49.080Z,80.12
2022-10-19T11:02:49.033Z,80.09
2022-10-19T11:03:49.089Z,80.16
2022-10-19T11:04:52.171Z,79.82
2022-10-19T11:05:49.002Z,79.87
2022-10-19T11:06:49.026Z,79.89
2022-10-19T11:07:48.984Z,80.14
2022-10-19T11:08:49.004Z,79.80
2022-10-19T11:09:49.032Z,79.69
2022-10-19T11:10:49.003Z,79.71
2022-10-19T11:11:48.987Z,79.79
2022-10-19T11:12:48.944Z,79.61
2022-10-19T11:13:48.915Z,79.66
2022-10-19T11:14:48.905Z,79.64
2022-10-19T11:15:48.972Z,79.86
2022-10-19T11:16:48.885Z,79.75
2022-10-19T11:17:48.877Z,79.92
2022-10-19T11:18:48.865Z,80.25
2022-10-19T11:19:48.918Z,79.58
2022-10-19T11:20:48.848Z,79.80
2022-10-19T11:21:48.928Z,79.93
2022-10-19T11:22:48.824Z,80.08
2022-10-19T11:23:48.820Z,80.03
2022-10-19T11:24:48.905Z,80.55
2022-10-19T11:25:49.168Z,80.62
2022-10-19T11:26:48.785Z,80.84
2022-10-19T11:27:48.767Z,81.03
2022-10-19T11:28:48.771Z,81.02
2022-10-19T11:29:48.804Z,80.85
2022-10-19T11:30:50.685Z,80.50
2022-10-19T11:31:48.780Z,80.35
2022-10-19T11:32:48.763Z,80.49
2022-10-19T11:33:48.720Z,80.88
2022-10-19T11:34:48.701Z,80.96
2022-10-19T11:35:48.711Z,80.93
2022-10-19T11:36:48.735Z,80.88
2022-10-19T11:37:55.123Z,80.99
2022-10-19T11:38:48.664Z,80.99
2022-10-19T11:39:48.735Z,81.04
2022-10-19T11:41:12.842Z,80.79
2022-10-19T11:41:48.633Z,80.49
2022-10-19T11:42:48.651Z,80.19
2022-10-19T11:43:48.608Z,80.26
2022-10-19T11:44:48.665Z,79.97
2022-10-19T11:45:48.632Z,80.17
2022-10-19T11:46:48.623Z,80.03
2022-10-19T11:47:48.573Z,80.23
2022-10-19T11:48:51.695Z,80.02
2022-10-19T11:49:48.562Z,80.20
2022-10-19T11:50:54.177Z,80.12
2022-10-19T11:51:48.583Z,79.92
2022-10-19T11:52:48.518Z,80.22
2022-10-19T11:53:48.644Z,79.74
2022-10-19T11:54:48.499Z,79.57
2022-10-19T11:55:48.488Z,79.44
2022-10-19T11:57:03.314Z,79.46
2022-10-19T11:57:48.516Z,79.48
2022-10-19T11:58:48.469Z,79.46
2022-10-19T11:59:48.450Z,79.58
2022-10-19T12:00:48.433Z,79.78
2022-10-19T12:01:48.491Z,79.89
2022-10-19T12:02:48.491Z,79.67
2022-10-19T12:03:48.397Z,79.34
2022-10-19T12:04:48.502Z,79.39
2022-10-19T12:05:48.403Z,79.99
2022-10-19T12:06:48.380Z,79.77
2022-10-19T12:07:48.609Z,79.75
2022-10-19T12:08:50.111Z,79.78
2022-10-19T12:09:48.404Z,79.84
2022-10-19T12:10:48.433Z,79.80
2022-10-19T12:11:48.331Z,79.91
2022-10-19T12:12:48.351Z,80.04
2022-10-19T12:13:48.322Z,80.27
2022-10-19T12:14:48.316Z,80.19
2022-10-19T12:15:48.323Z,80.13
2022-10-19T12:16:48.310Z,79.89
2022-10-19T12:17:48.280Z,80.02
2022-10-19T12:18:48.243Z,80.03
2022-10-19T12:19:48.233Z,80.24
2022-10-19T12:20:48.233Z,80.21
2022-10-19T12:21:48.214Z,80.50
2022-10-19T12:22:48.318Z,80.64
2022-10-19T12:23:48.192Z,80.53
2022-10-19T12:24:48.186Z,80.40
2022-10-19T12:25:48.220Z,79.97
2022-10-19T12:26:48.246Z,79.89
2022-10-19T12:27:48.151Z,79.90
2022-10-19T12:28:48.191Z,80.17
2022-10-19T12:29:48.171Z,80.51
2022-10-19T12:30:48.170Z,80.42
2022-10-19T12:31:48.123Z,80.42
2022-10-19T12:32:52.063Z,80.49
2022-10-19T12:33:48.144Z,80.63
2022-10-19T12:34:48.125Z,80.63
2022-10-19T12:35:48.168Z,80.65
2022-10-19T12:36:48.082Z,80.78
2022-10-19T12:37:48.048Z,80.73
2022-10-19T12:38:50.967Z,80.89
2022-10-19T12:39:48.038Z,80.83
2022-10-19T12:40:48.135Z,81.06
2022-10-19T12:41:48.029Z,81.19
2022-10-19T12:42:48.174Z,81.48
2022-10-19T12:43:47.990Z,81.43
2022-10-19T12:44:48.048Z,81.20
2022-10-19T12:45:47.981Z,81.18
2022-10-19T12:46:51.296Z,81.23
2022-10-19T12:47:48.042Z,80.96
2022-10-19T12:48:47.940Z,81.03
2022-10-19T12:49:47.927Z,80.80
2022-10-19T12:50:48.007Z,80.70
2022-10-19T12:51:47.901Z,80.48
2022-10-19T12:52:47.945Z,80.49
2022-10-19T12:53:47.932Z,80.39
2022-10-19T12:54:48.137Z,80.18
2022-10-19T12:55:50.723Z,80.36
2022-10-19T12:56:47.895Z,79.85
2022-10-19T12:57:47.893Z,79.76
2022-10-19T12:58:48.230Z,79.50